This is the latest recevied weather packets stored in our database for station/object NO9B. If no packets are shown the sender has not sent any weather packets the latest 1 day(s).
| Time | Temp. | Humidity | Pressure | Rain* | Wind** | Luminosity | Snow |
|---|---|---|---|---|---|---|---|
| 1778094417 | 12.78° C | 35% | 1013.7 hPa | 0 mm | - | 244 W/m² | - |
| 1778092598 | 12.22° C | 35% | 1013.8 hPa | 0 mm | - | 309 W/m² | - |
| 1778091688 | 11.67° C | 37% | 1013.6 hPa | 0 mm | - | 240 W/m² | - |
| 1778090780 | 11.11° C | 36% | 1013.6 hPa | 0 mm | - | 228 W/m² | - |
| 1778087447 | 11.11° C | 37% | 1014.4 hPa | 0 mm | - | 102 W/m² | - |
| 1778086540 | 11.67° C | 34% | 1014.1 hPa | 0 mm | - | 174 W/m² | - |
| 1778086236 | 11.67° C | 37% | 1014.3 hPa | 0 mm | - | 156 W/m² | - |
| 1778085933 | 11.11° C | 37% | 1014.1 hPa | 0 mm | - | 796 W/m² | - |
| 1778085630 | 11.11° C | 38% | 1014.5 hPa | 0 mm | - | 207 W/m² | - |
| 1778084113 | 10.56° C | 40% | 1014.1 hPa | 0 mm | - | 135 W/m² | - |
| 1778079366 | 10.56° C | 38% | 1014 hPa | 0 mm | - | 91 W/m² | - |
| 1778077550 | 10° C | 41% | 1014.1 hPa | 0 mm | - | 77 W/m² | - |
| 1778076644 | 10° C | 40% | 1014 hPa | 0 mm | - | 61 W/m² | - |
| 1778075431 | 9.44° C | 42% | 1013.9 hPa | 0 mm | - | 48 W/m² | - |
| 1778074824 | 8.89° C | 44% | 1013.9 hPa | 0 mm | - | 34 W/m² | - |
| 1778074218 | 8.89° C | 44% | 1013.8 hPa | 0 mm | - | 32 W/m² | - |
| 1778073915 | 8.89° C | 44% | 1013.8 hPa | 0 mm | - | 28 W/m² | - |
| 1778073006 | 7.78° C | 47% | 1013.7 hPa | 0 mm | - | 25 W/m² | - |
| 1778070889 | 5.56° C | 59% | 1013.6 hPa | 0 mm | - | 20 W/m² | - |
| 1778070283 | 5° C | 61% | 1013.4 hPa | 0 mm | - | 19 W/m² | - |
| 1778067863 | 0.56° C | 88% | 1013.1 hPa | 0 mm | - | 13 W/m² | - |
| 1778067259 | 0.56° C | 89% | 1013.1 hPa | 0 mm | - | 11 W/m² | - |
| 1778066955 | 0° C | 89% | 1013.3 hPa | 0 mm | - | 11 W/m² | - |
| 1778066653 | 0° C | 88% | 1013 hPa | 0 mm | - | 10 W/m² | - |
| 1778066350 | 0° C | 88% | 1012.9 hPa | 0 mm | - | 8 W/m² | - |
* Rain latest hour (hover to see other rain measurements)
** Current wind speed in m/s (hover to see current wind gust speed)